Time;durP1;ratioP1;P1;durP2;ratioP2;P2;SDS_P1;SDS_P2;PMS_P1;PMS_P2;Temp;Humidity;BMP_temperature;BMP_pressure;BME280_temperature;BME280_humidity;BME280_pressure;Samples;Min_cycle;Max_cycle;Signal;HPM_P1;HPM_P2
2023/06/18 00:01:58;;;;;;;11.77;10.57;;;;;;;;;;5035628;28;20442;-61
2023/06/18 00:04:25;;;;;;;12.67;11.03;;;;;;;;;;5035711;28;20792;-61
2023/06/18 00:06:51;;;;;;;11.93;10.80;;;;;;;;;;5035943;28;20436;-61
2023/06/18 00:09:17;;;;;;;15.40;11.47;;;;;;;;;;5035539;28;20495;-61
2023/06/18 00:11:43;;;;;;;12.60;11.60;;;;;;;;;;5035502;28;20418;-61
2023/06/18 00:14:09;;;;;;;11.77;10.57;;;;;;;;;;5035411;28;20435;-61
2023/06/18 00:16:35;;;;;;;12.77;11.60;;;;;;;;;;5035395;28;20436;-61
2023/06/18 00:19:01;;;;;;;17.80;12.83;;;;;;;;;;5035392;28;20559;-61
2023/06/18 00:21:27;;;;;;;12.83;11.47;;;;;;;;;;5034148;28;20449;-61
2023/06/18 00:23:53;;;;;;;12.17;11.17;;;;;;;;;;5035144;28;20872;-61
2023/06/18 00:26:19;;;;;;;11.83;10.73;;;;;;;;;;5035148;28;20499;-61
2023/06/18 00:28:47;;;;;;;12.03;11.00;;;;;;;;;;5035190;28;20410;-61
2023/06/18 00:31:13;;;;;;;12.97;11.60;;;;;;;;;;5035269;28;20835;-61
2023/06/18 00:33:41;;;;;;;13.43;10.63;;;;;;;;;;5035082;28;20425;-61
2023/06/18 00:36:10;;;;;;;11.47;10.57;;;;;;;;;;5035167;28;20416;-61
2023/06/18 00:38:36;;;;;;;12.03;11.10;;;;;;;;;;5035200;28;20464;-61
2023/06/18 00:41:02;;;;;;;12.33;11.33;;;;;;;;;;5034810;28;20540;-56
2023/06/18 00:43:31;;;;;;;14.27;13.00;;;;;;;;;;5034673;28;20862;-56
2023/06/18 00:46:01;;;;;;;13.77;12.20;;;;;;;;;;5035182;28;20451;-57
2023/06/18 00:48:35;;;;;;;12.47;11.17;;;;;;;;;;5034748;28;20502;-57
2023/06/18 00:51:03;;;;;;;12.73;11.57;;;;;;;;;;5034291;28;20831;-57
2023/06/18 00:53:32;;;;;;;12.77;11.37;;;;;;;;;;5032881;28;20855;-57
2023/06/18 00:55:58;;;;;;;12.50;11.30;;;;;;;;;;5034494;28;20426;-57
2023/06/18 00:58:25;;;;;;;14.23;11.93;;;;;;;;;;5034392;28;20529;-57
2023/06/18 01:00:53;;;;;;;12.20;11.30;;;;;;;;;;5034292;28;20451;-56
2023/06/18 01:03:20;;;;;;;13.37;12.17;;;;;;;;;;5034206;28;20835;-57
2023/06/18 01:05:47;;;;;;;13.53;11.47;;;;;;;;;;5033996;28;20425;-57
2023/06/18 01:08:14;;;;;;;13.60;11.60;;;;;;;;;;5033067;28;20488;-57
2023/06/18 01:10:40;;;;;;;11.73;10.80;;;;;;;;;;5034242;28;20950;-56
2023/06/18 01:13:11;;;;;;;11.50;10.57;;;;;;;;;;5034261;28;20520;-56
2023/06/18 01:15:38;;;;;;;11.13;10.07;;;;;;;;;;5034372;28;20929;-57
2023/06/18 01:18:06;;;;;;;11.13;10.30;;;;;;;;;;5034002;28;20467;-57
2023/06/18 01:20:40;;;;;;;13.53;10.53;;;;;;;;;;5034271;28;20492;-57
2023/06/18 01:23:09;;;;;;;11.77;10.53;;;;;;;;;;5034021;28;20416;-57
2023/06/18 01:25:38;;;;;;;10.57;9.70;;;;;;;;;;5034149;28;20404;-57
2023/06/18 01:28:08;;;;;;;10.60;9.80;;;;;;;;;;5034602;28;20410;-57
2023/06/18 01:30:38;;;;;;;11.17;10.27;;;;;;;;;;5034081;28;20407;-56
2023/06/18 01:33:04;;;;;;;11.33;10.23;;;;;;;;;;5033725;28;20423;-57
2023/06/18 01:35:30;;;;;;;10.33;9.33;;;;;;;;;;5034017;28;20435;-57
2023/06/18 01:38:15;;;;;;;10.50;9.70;;;;;;;;;;5033878;28;20486;-57
2023/06/18 01:40:47;;;;;;;10.83;9.90;;;;;;;;;;5033954;28;20890;-57
2023/06/18 01:43:13;;;;;;;10.53;9.73;;;;;;;;;;5033790;28;20404;-57
2023/06/18 01:45:52;;;;;;;9.87;9.13;;;;;;;;;;5033713;28;20417;-57
2023/06/18 01:48:23;;;;;;;12.00;9.67;;;;;;;;;;5033446;28;20444;-57
2023/06/18 01:50:50;;;;;;;10.67;9.77;;;;;;;;;;5032463;28;20458;-57
2023/06/18 01:53:21;;;;;;;11.07;10.13;;;;;;;;;;5033627;28;20467;-57
2023/06/18 01:55:49;;;;;;;10.30;9.20;;;;;;;;;;5033324;28;20808;-57
2023/06/18 01:58:15;;;;;;;9.80;8.93;;;;;;;;;;5033374;28;20546;-57
2023/06/18 02:00:41;;;;;;;10.30;9.50;;;;;;;;;;5033062;28;20467;-57
2023/06/18 02:03:08;;;;;;;10.30;9.40;;;;;;;;;;5033298;28;20445;-57
2023/06/18 02:05:34;;;;;;;16.20;10.43;;;;;;;;;;5033402;28;20491;-57
2023/06/18 02:08:02;;;;;;;10.27;9.47;;;;;;;;;;5033115;28;20424;-57
2023/06/18 02:10:31;;;;;;;9.57;8.77;;;;;;;;;;5032395;28;20573;-57
2023/06/18 02:12:57;;;;;;;11.67;10.57;;;;;;;;;;5033202;28;20906;-57
2023/06/18 02:15:22;;;;;;;11.60;10.50;;;;;;;;;;5031909;28;20435;-57
2023/06/18 02:17:49;;;;;;;10.53;9.73;;;;;;;;;;5033248;28;20471;-57
2023/06/18 02:20:15;;;;;;;12.33;11.27;;;;;;;;;;5033576;28;20490;-57
2023/06/18 02:22:41;;;;;;;11.60;10.03;;;;;;;;;;5033129;28;20440;-57
2023/06/18 02:25:09;;;;;;;12.17;11.17;;;;;;;;;;5032640;28;20418;-57
2023/06/18 02:27:38;;;;;;;12.87;11.77;;;;;;;;;;5033410;28;20882;-57
2023/06/18 02:30:04;;;;;;;12.87;11.80;;;;;;;;;;5033327;28;20419;-57
2023/06/18 02:32:34;;;;;;;13.43;12.20;;;;;;;;;;5032837;28;20478;-57
2023/06/18 02:35:00;;;;;;;12.73;11.50;;;;;;;;;;5032699;28;20412;-57
2023/06/18 02:37:27;;;;;;;13.70;12.40;;;;;;;;;;5032319;28;20446;-57
2023/06/18 02:39:56;;;;;;;12.83;11.70;;;;;;;;;;5032732;28;20420;-57
2023/06/18 02:42:22;;;;;;;16.10;11.70;;;;;;;;;;5032485;28;20438;-57
2023/06/18 02:44:50;;;;;;;13.27;12.13;;;;;;;;;;5032977;28;20412;-57
2023/06/18 02:47:16;;;;;;;13.37;12.17;;;;;;;;;;5031545;28;20432;-57
2023/06/18 02:49:45;;;;;;;26.50;12.40;;;;;;;;;;5032563;28;20431;-57
2023/06/18 02:52:10;;;;;;;12.50;11.30;;;;;;;;;;5032854;28;20795;-57
2023/06/18 02:54:41;;;;;;;14.03;11.00;;;;;;;;;;5032717;28;20899;-57
2023/06/18 02:57:07;;;;;;;11.37;10.47;;;;;;;;;;5032317;28;20477;-57
2023/06/18 02:59:36;;;;;;;12.80;11.43;;;;;;;;;;5032434;28;20459;-57
2023/06/18 03:02:04;;;;;;;12.60;11.50;;;;;;;;;;5032616;28;20469;-57
2023/06/18 03:04:30;;;;;;;12.67;11.63;;;;;;;;;;5032445;28;20415;-57
2023/06/18 03:06:59;;;;;;;11.93;10.93;;;;;;;;;;5032415;28;20411;-57
2023/06/18 03:09:25;;;;;;;11.80;10.73;;;;;;;;;;5032250;28;20449;-57
2023/06/18 03:11:53;;;;;;;12.30;11.30;;;;;;;;;;5032098;28;20962;-57
2023/06/18 03:14:21;;;;;;;11.70;10.80;;;;;;;;;;5032046;28;20566;-57
2023/06/18 03:16:47;;;;;;;12.37;11.27;;;;;;;;;;5032453;28;20522;-57
2023/06/18 03:19:13;;;;;;;13.17;11.97;;;;;;;;;;5032331;28;20493;-57
2023/06/18 03:21:44;;;;;;;12.87;11.80;;;;;;;;;;5031878;28;20915;-56
2023/06/18 03:24:14;;;;;;;12.57;11.37;;;;;;;;;;5032361;28;20960;-57
2023/06/18 03:26:41;;;;;;;16.43;11.40;;;;;;;;;;5032114;28;20414;-57
2023/06/18 03:29:09;;;;;;;12.20;11.20;;;;;;;;;;5032332;28;20422;-57
2023/06/18 03:31:35;;;;;;;12.13;11.00;;;;;;;;;;5034569;28;20476;-57
2023/06/18 03:34:01;;;;;;;11.97;10.93;;;;;;;;;;5035786;28;20418;-56
2023/06/18 03:36:34;;;;;;;11.73;10.63;;;;;;;;;;5036292;28;20402;-57
2023/06/18 03:39:00;;;;;;;12.00;10.90;;;;;;;;;;5035836;28;20462;-56
2023/06/18 03:41:28;;;;;;;11.40;10.40;;;;;;;;;;5035856;28;20466;-57
2023/06/18 03:43:54;;;;;;;12.23;11.03;;;;;;;;;;5036030;28;20585;-57
2023/06/18 03:46:20;;;;;;;11.90;10.90;;;;;;;;;;5036001;28;20501;-57
2023/06/18 03:48:46;;;;;;;15.27;10.53;;;;;;;;;;5036006;28;20421;-57
2023/06/18 03:51:12;;;;;;;14.63;11.00;;;;;;;;;;5035566;28;20951;-57
2023/06/18 03:53:40;;;;;;;12.33;11.23;;;;;;;;;;5035547;28;20430;-57
2023/06/18 03:56:08;;;;;;;12.03;11.03;;;;;;;;;;5035720;28;20433;-57
2023/06/18 03:58:36;;;;;;;12.77;11.57;;;;;;;;;;5035990;28;20492;-57
2023/06/18 04:01:02;;;;;;;12.30;11.23;;;;;;;;;;5035668;28;20434;-57
2023/06/18 04:03:28;;;;;;;12.63;11.40;;;;;;;;;;5035159;28;20446;-57
2023/06/18 04:05:56;;;;;;;13.13;11.80;;;;;;;;;;5035785;28;20964;-57
2023/06/18 04:08:22;;;;;;;11.10;10.30;;;;;;;;;;5035321;28;20529;-56
2023/06/18 04:10:48;;;;;;;11.53;10.60;;;;;;;;;;5035507;28;20892;-57
2023/06/18 04:13:15;;;;;;;12.97;11.77;;;;;;;;;;5034278;28;20456;-57
2023/06/18 04:15:41;;;;;;;12.70;11.10;;;;;;;;;;5035680;28;20794;-57
2023/06/18 04:18:07;;;;;;;13.53;11.20;;;;;;;;;;5035296;28;20465;-57
2023/06/18 04:20:34;;;;;;;12.30;11.27;;;;;;;;;;5034932;28;20813;-57
2023/06/18 04:23:02;;;;;;;12.60;11.00;;;;;;;;;;5034985;28;20965;-57
2023/06/18 04:25:28;;;;;;;12.17;10.87;;;;;;;;;;5035525;28;20395;-57
2023/06/18 04:27:54;;;;;;;13.27;12.00;;;;;;;;;;5035364;28;20457;-57
2023/06/18 04:30:20;;;;;;;13.17;11.97;;;;;;;;;;5035172;28;20481;-57
2023/06/18 04:32:46;;;;;;;13.90;12.60;;;;;;;;;;5034829;28;20781;-57
2023/06/18 04:35:12;;;;;;;12.90;11.70;;;;;;;;;;5033335;28;20431;-57
2023/06/18 04:37:38;;;;;;;12.50;11.50;;;;;;;;;;5034842;28;20918;-57
2023/06/18 04:40:05;;;;;;;13.30;12.20;;;;;;;;;;5034485;28;20426;-57
2023/06/18 04:42:31;;;;;;;14.23;11.70;;;;;;;;;;5034319;28;20801;-57
2023/06/18 04:44:58;;;;;;;12.70;11.70;;;;;;;;;;5034845;28;20410;-57
2023/06/18 04:47:24;;;;;;;12.33;11.47;;;;;;;;;;5034689;28;20445;-58
2023/06/18 04:49:50;;;;;;;12.87;11.67;;;;;;;;;;5034292;28;20508;-58
2023/06/18 04:52:18;;;;;;;13.93;12.50;;;;;;;;;;5035110;28;20458;-58
2023/06/18 04:54:45;;;;;;;13.07;11.90;;;;;;;;;;5034721;28;20816;-58
2023/06/18 04:57:11;;;;;;;14.60;12.70;;;;;;;;;;5034935;28;20427;-58
2023/06/18 04:59:40;;;;;;;13.73;12.40;;;;;;;;;;5034482;28;20958;-58
2023/06/18 05:02:06;;;;;;;13.10;11.77;;;;;;;;;;5034477;28;20517;-58
2023/06/18 05:04:32;;;;;;;17.80;12.50;;;;;;;;;;5034337;28;20423;-58
2023/06/18 05:06:59;;;;;;;13.70;12.50;;;;;;;;;;5034497;28;20416;-58
2023/06/18 05:09:27;;;;;;;13.50;12.20;;;;;;;;;;5034202;28;20503;-58
2023/06/18 05:11:55;;;;;;;12.80;11.67;;;;;;;;;;5034063;28;20433;-58
2023/06/18 05:14:21;;;;;;;13.93;12.50;;;;;;;;;;5033979;28;20443;-58
2023/06/18 05:16:47;;;;;;;13.30;12.00;;;;;;;;;;5033876;28;20462;-57
2023/06/18 05:19:13;;;;;;;13.53;12.13;;;;;;;;;;5034039;28;20528;-58
2023/06/18 05:21:39;;;;;;;11.77;10.87;;;;;;;;;;5034102;28;20437;-58
2023/06/18 05:24:07;;;;;;;11.90;11.00;;;;;;;;;;5034027;28;20442;-58
2023/06/18 05:26:33;;;;;;;16.00;11.33;;;;;;;;;;5034022;28;20415;-58
2023/06/18 05:28:59;;;;;;;13.00;11.97;;;;;;;;;;5033453;28;20510;-58
2023/06/18 05:31:25;;;;;;;12.40;11.43;;;;;;;;;;5033865;28;20897;-58
2023/06/18 05:33:51;;;;;;;12.00;10.80;;;;;;;;;;5032689;28;20970;-58
2023/06/18 05:36:17;;;;;;;16.83;11.40;;;;;;;;;;5034029;28;20452;-58
2023/06/18 05:38:43;;;;;;;14.10;12.70;;;;;;;;;;5033720;28;20456;-58
2023/06/18 05:41:09;;;;;;;13.17;12.00;;;;;;;;;;5033853;28;20961;-58
2023/06/18 05:43:35;;;;;;;12.17;11.10;;;;;;;;;;5033606;28;20434;-58
2023/06/18 05:46:01;;;;;;;12.87;11.67;;;;;;;;;;5033709;28;20474;-58
2023/06/18 05:48:27;;;;;;;15.87;14.27;;;;;;;;;;5033478;28;20497;-57
2023/06/18 05:50:53;;;;;;;12.43;11.40;;;;;;;;;;5033465;28;20631;-58
2023/06/18 05:53:24;;;;;;;11.70;10.60;;;;;;;;;;5033450;28;20523;-57
2023/06/18 05:55:50;;;;;;;11.67;10.40;;;;;;;;;;5032710;28;20430;-57
2023/06/18 05:58:15;;;;;;;9.47;8.70;;;;;;;;;;5032073;28;21010;-57
2023/06/18 06:00:41;;;;;;;10.10;9.30;;;;;;;;;;5032774;28;20491;-58
2023/06/18 06:03:08;;;;;;;11.47;10.10;;;;;;;;;;5033289;28;20416;-58
2023/06/18 06:05:35;;;;;;;10.60;9.70;;;;;;;;;;5033391;28;20918;-58
2023/06/18 06:08:01;;;;;;;10.23;9.27;;;;;;;;;;5032978;28;20423;-57
2023/06/18 06:10:27;;;;;;;9.80;9.00;;;;;;;;;;5032201;28;20412;-58
2023/06/18 06:12:53;;;;;;;10.77;9.37;;;;;;;;;;5031403;28;20441;-58
2023/06/18 06:15:19;;;;;;;10.73;9.83;;;;;;;;;;5033071;28;20534;-58
2023/06/18 06:17:46;;;;;;;9.37;8.77;;;;;;;;;;5032582;28;20567;-58
2023/06/18 06:20:12;;;;;;;9.50;8.80;;;;;;;;;;5032586;28;20450;-58
2023/06/18 06:22:38;;;;;;;9.73;9.03;;;;;;;;;;5033085;28;20414;-57
2023/06/18 06:25:04;;;;;;;10.10;9.17;;;;;;;;;;5032869;28;20438;-58
2023/06/18 06:27:30;;;;;;;10.10;9.20;;;;;;;;;;5032703;28;20490;-58
2023/06/18 06:29:59;;;;;;;8.57;7.87;;;;;;;;;;5032597;28;20415;-57
2023/06/18 06:32:27;;;;;;;10.00;9.10;;;;;;;;;;5032989;28;20487;-58
2023/06/18 06:34:53;;;;;;;9.00;8.27;;;;;;;;;;5032966;28;20910;-58
2023/06/18 06:37:19;;;;;;;9.80;8.90;;;;;;;;;;5032715;28;20419;-57
2023/06/18 06:39:45;;;;;;;11.33;8.73;;;;;;;;;;5032698;28;20476;-57
2023/06/18 06:42:12;;;;;;;9.50;8.60;;;;;;;;;;5032354;28;20455;-58
2023/06/18 06:44:38;;;;;;;9.47;8.70;;;;;;;;;;5032493;28;20436;-58
2023/06/18 06:47:05;;;;;;;10.33;9.40;;;;;;;;;;5032506;28;20829;-58
2023/06/18 06:49:31;;;;;;;9.03;8.40;;;;;;;;;;5032266;28;20429;-57
2023/06/18 06:51:57;;;;;;;10.47;9.67;;;;;;;;;;5032674;28;20458;-58
2023/06/18 06:54:23;;;;;;;14.30;10.30;;;;;;;;;;5032326;28;20445;-58
2023/06/18 06:56:49;;;;;;;10.30;9.50;;;;;;;;;;5032064;28;20832;-58
2023/06/18 06:59:15;;;;;;;10.67;9.70;;;;;;;;;;5032114;28;20469;-58
2023/06/18 07:01:42;;;;;;;12.70;9.93;;;;;;;;;;5032327;28;20473;-58
2023/06/18 07:04:08;;;;;;;10.90;9.90;;;;;;;;;;5032199;28;20528;-58
2023/06/18 07:06:35;;;;;;;10.30;9.60;;;;;;;;;;5031903;28;20457;-58
2023/06/18 07:09:03;;;;;;;11.20;10.10;;;;;;;;;;5032323;28;20442;-58
2023/06/18 07:11:29;;;;;;;10.37;9.50;;;;;;;;;;5032668;28;20426;-58
2023/06/18 07:13:55;;;;;;;11.17;9.37;;;;;;;;;;5032456;28;20449;-59
2023/06/18 07:16:20;;;;;;;10.80;9.70;;;;;;;;;;5032034;28;20421;-58
2023/06/18 07:18:46;;;;;;;9.70;8.90;;;;;;;;;;5032231;28;20603;-58
2023/06/18 07:21:12;;;;;;;10.63;9.67;;;;;;;;;;5032117;28;20418;-58
2023/06/18 07:23:39;;;;;;;11.50;10.50;;;;;;;;;;5032202;28;20907;-58
2023/06/18 07:26:05;;;;;;;13.93;10.03;;;;;;;;;;5032233;28;20413;-58
2023/06/18 07:28:31;;;;;;;10.90;9.80;;;;;;;;;;5031730;28;20416;-58
2023/06/18 07:30:56;;;;;;;15.80;14.20;;;;;;;;;;5032473;28;20900;-58
2023/06/18 07:33:22;;;;;;;10.90;9.87;;;;;;;;;;5032202;28;20763;-58
2023/06/18 07:35:51;;;;;;;9.93;8.90;;;;;;;;;;5032090;28;20410;-58
2023/06/18 07:38:19;;;;;;;9.87;9.00;;;;;;;;;;5031606;28;20468;-58
2023/06/18 07:40:45;;;;;;;10.33;9.50;;;;;;;;;;5031836;28;20425;-58
2023/06/18 07:43:11;;;;;;;12.23;11.23;;;;;;;;;;5032055;28;20832;-58
2023/06/18 07:45:38;;;;;;;13.00;9.50;;;;;;;;;;5031891;28;20420;-58
2023/06/18 07:48:04;;;;;;;9.70;8.90;;;;;;;;;;5032073;28;20481;-58
2023/06/18 07:50:30;;;;;;;11.93;10.70;;;;;;;;;;5032066;28;20451;-58
2023/06/18 07:52:56;;;;;;;14.40;13.10;;;;;;;;;;5031820;28;20513;-58
2023/06/18 07:55:22;;;;;;;9.83;8.90;;;;;;;;;;5031999;28;20438;-58
2023/06/18 07:57:48;;;;;;;10.07;9.30;;;;;;;;;;5031577;28;20997;-58
2023/06/18 08:00:14;;;;;;;10.47;9.50;;;;;;;;;;5031473;28;20816;-58
2023/06/18 08:02:42;;;;;;;10.47;8.63;;;;;;;;;;5031908;28;20411;-58
2023/06/18 08:05:09;;;;;;;10.30;9.47;;;;;;;;;;5031913;28;20444;-58
2023/06/18 08:07:35;;;;;;;11.03;9.87;;;;;;;;;;5031924;28;20414;-58
2023/06/18 08:10:01;;;;;;;10.17;9.33;;;;;;;;;;5031679;28;20435;-58
2023/06/18 08:12:27;;;;;;;12.53;10.30;;;;;;;;;;5031687;28;20534;-58
2023/06/18 08:14:53;;;;;;;10.97;10.00;;;;;;;;;;5031762;28;20896;-59
2023/06/18 08:17:20;;;;;;;9.60;8.67;;;;;;;;;;5030892;28;20431;-59
2023/06/18 08:19:47;;;;;;;10.70;9.10;;;;;;;;;;5035374;28;21021;-59
2023/06/18 08:22:14;;;;;;;10.77;9.40;;;;;;;;;;5035250;28;20866;-58
2023/06/18 08:24:40;;;;;;;9.33;8.73;;;;;;;;;;5035677;28;20464;-58
2023/06/18 08:27:06;;;;;;;9.20;8.30;;;;;;;;;;5033965;28;20465;-59
2023/06/18 08:29:32;;;;;;;9.20;8.60;;;;;;;;;;5035336;28;20532;-58
2023/06/18 08:32:04;;;;;;;9.67;8.87;;;;;;;;;;5035100;28;20427;-58
2023/06/18 08:34:30;;;;;;;9.27;8.40;;;;;;;;;;5034791;28;20437;-58
2023/06/18 08:37:00;;;;;;;21.57;15.13;;;;;;;;;;5035075;28;20412;-58
2023/06/18 08:39:31;;;;;;;8.10;7.50;;;;;;;;;;5034744;28;20971;-58
2023/06/18 08:42:00;;;;;;;8.30;7.53;;;;;;;;;;5035125;28;20418;-58
2023/06/18 08:44:27;;;;;;;9.37;8.37;;;;;;;;;;5033680;28;20471;-60
2023/06/18 08:46:57;;;;;;;8.63;7.90;;;;;;;;;;5034857;28;20422;-60
2023/06/18 08:49:23;;;;;;;8.23;7.50;;;;;;;;;;5034821;28;20455;-60
2023/06/18 08:51:53;;;;;;;8.73;7.60;;;;;;;;;;5034778;28;20472;-60
2023/06/18 08:54:19;;;;;;;8.40;7.73;;;;;;;;;;5034579;28;20423;-60
2023/06/18 08:56:49;;;;;;;8.30;7.70;;;;;;;;;;5034624;28;20444;-60
2023/06/18 08:59:15;;;;;;;8.50;7.67;;;;;;;;;;5034666;28;20459;-62
2023/06/18 09:01:44;;;;;;;9.80;8.90;;;;;;;;;;5034828;28;20437;-60
2023/06/18 09:04:12;;;;;;;10.27;8.93;;;;;;;;;;5034597;28;20922;-61
2023/06/18 09:06:39;;;;;;;8.23;7.53;;;;;;;;;;5034413;28;20500;-61
2023/06/18 09:09:07;;;;;;;12.77;7.23;;;;;;;;;;5034612;28;20462;-61
2023/06/18 09:11:35;;;;;;;8.17;7.30;;;;;;;;;;5034285;28;20426;-61
2023/06/18 09:14:01;;;;;;;7.50;6.63;;;;;;;;;;5034284;28;20418;-61
2023/06/18 09:16:28;;;;;;;8.40;7.70;;;;;;;;;;5034595;28;20427;-60
2023/06/18 09:18:55;;;;;;;8.97;6.50;;;;;;;;;;5034241;28;20466;-60
2023/06/18 09:21:38;;;;;;;11.67;7.43;;;;;;;;;;5034285;28;20480;-61
2023/06/18 09:24:08;;;;;;;7.40;6.70;;;;;;;;;;5034403;28;20407;-61
2023/06/18 09:26:37;;;;;;;8.47;7.70;;;;;;;;;;5034413;28;20416;-60
2023/06/18 09:29:04;;;;;;;8.07;6.40;;;;;;;;;;5032744;28;20526;-61
2023/06/18 09:31:30;;;;;;;10.20;6.80;;;;;;;;;;5032992;28;20426;-61
2023/06/18 09:33:56;;;;;;;6.70;6.40;;;;;;;;;;5034122;28;20927;-60
2023/06/18 09:36:28;;;;;;;7.10;6.60;;;;;;;;;;5034126;28;20426;-61
2023/06/18 09:38:54;;;;;;;7.30;6.90;;;;;;;;;;5034050;28;20463;-60
2023/06/18 09:41:24;;;;;;;9.37;6.50;;;;;;;;;;5034071;28;20435;-60
2023/06/18 09:43:51;;;;;;;6.63;6.20;;;;;;;;;;5033982;28;20423;-60
2023/06/18 09:46:22;;;;;;;6.20;5.80;;;;;;;;;;5033798;28;20911;-60
2023/06/18 09:48:48;;;;;;;8.73;5.77;;;;;;;;;;5032606;28;20424;-60
2023/06/18 09:51:15;;;;;;;6.83;6.40;;;;;;;;;;5033793;28;20440;-60
2023/06/18 09:53:41;;;;;;;6.57;6.10;;;;;;;;;;5033903;28;20778;-61
2023/06/18 09:56:08;;;;;;;8.03;6.63;;;;;;;;;;5032484;28;20439;-61
2023/06/18 09:58:44;;;;;;;6.43;5.90;;;;;;;;;;5032277;28;20503;-61
2023/06/18 10:01:10;;;;;;;7.37;6.53;;;;;;;;;;5033398;28;20985;-62
2023/06/18 10:03:36;;;;;;;7.60;5.63;;;;;;;;;;5033503;28;20506;-61
2023/06/18 10:06:23;;;;;;;6.20;5.80;;;;;;;;;;5032322;28;20425;-60
2023/06/18 10:08:51;;;;;;;6.30;5.80;;;;;;;;;;5033382;28;20965;-60
2023/06/18 10:11:18;;;;;;;5.83;5.40;;;;;;;;;;5033338;28;20448;-60
2023/06/18 10:13:53;;;;;;;5.93;5.57;;;;;;;;;;5033079;28;20888;-60
2023/06/18 10:16:20;;;;;;;5.70;5.47;;;;;;;;;;5033207;28;20434;-60
2023/06/18 10:18:46;;;;;;;6.40;6.10;;;;;;;;;;5032960;28;20463;-60
2023/06/18 10:21:17;;;;;;;6.77;6.17;;;;;;;;;;5033134;28;20490;-60
2023/06/18 10:23:44;;;;;;;5.40;5.20;;;;;;;;;;5033120;28;20231;-60
2023/06/18 10:26:11;;;;;;;6.53;5.93;;;;;;;;;;5031821;28;20440;-60
2023/06/18 10:28:40;;;;;;;5.90;5.60;;;;;;;;;;5032963;28;20424;-60
2023/06/18 10:31:06;;;;;;;6.30;5.23;;;;;;;;;;5031744;28;20958;-61
2023/06/18 10:33:34;;;;;;;5.23;5.00;;;;;;;;;;5031743;28;20424;-60
2023/06/18 10:36:03;;;;;;;5.77;5.27;;;;;;;;;;5031681;28;20426;-60
2023/06/18 10:38:29;;;;;;;5.50;5.10;;;;;;;;;;5032631;28;20672;-60
2023/06/18 10:41:13;;;;;;;6.03;5.67;;;;;;;;;;5032151;28;20443;-60
2023/06/18 10:43:42;;;;;;;6.50;6.20;;;;;;;;;;5032811;28;20420;-60
2023/06/18 10:46:12;;;;;;;5.50;5.30;;;;;;;;;;5031293;28;20458;-61
2023/06/18 10:48:41;;;;;;;5.70;5.20;;;;;;;;;;5032685;28;20431;-60
2023/06/18 10:51:17;;;;;;;6.00;5.70;;;;;;;;;;5032772;28;20448;-61
2023/06/18 10:53:49;;;;;;;5.30;5.10;;;;;;;;;;5032830;28;20403;-61
2023/06/18 10:56:15;;;;;;;6.07;5.47;;;;;;;;;;5032772;28;20843;-60
2023/06/18 10:58:42;;;;;;;5.87;5.60;;;;;;;;;;5032463;28;20958;-60
2023/06/18 11:01:22;;;;;;;5.17;4.93;;;;;;;;;;5032601;28;20929;-60
2023/06/18 11:04:00;;;;;;;6.20;5.87;;;;;;;;;;5032470;28;20511;-60
2023/06/18 11:06:29;;;;;;;5.43;5.10;;;;;;;;;;5032626;28;20419;-60
2023/06/18 11:08:55;;;;;;;5.57;5.03;;;;;;;;;;5032476;28;20495;-60
2023/06/18 11:11:23;;;;;;;5.00;4.80;;;;;;;;;;5032537;28;20440;-60
2023/06/18 11:13:55;;;;;;;5.70;5.30;;;;;;;;;;5032308;28;20412;-60
2023/06/18 11:16:22;;;;;;;5.97;5.60;;;;;;;;;;5032295;28;20462;-60
2023/06/18 11:18:49;;;;;;;5.90;5.30;;;;;;;;;;5031046;28;20495;-61
2023/06/18 11:21:16;;;;;;;5.63;5.33;;;;;;;;;;5032388;28;20438;-61
2023/06/18 11:23:43;;;;;;;5.50;5.10;;;;;;;;;;5032559;28;20743;-61
2023/06/18 11:26:18;;;;;;;5.73;5.43;;;;;;;;;;5031081;28;20535;-61
2023/06/18 11:28:46;;;;;;;4.83;4.73;;;;;;;;;;5032677;28;20486;-60
2023/06/18 11:31:14;;;;;;;5.63;5.43;;;;;;;;;;5032638;28;20950;-60
2023/06/18 11:33:46;;;;;;;5.83;5.43;;;;;;;;;;5032705;28;20411;-60
2023/06/18 11:36:13;;;;;;;5.50;5.20;;;;;;;;;;5032614;28;20478;-60
2023/06/18 11:38:42;;;;;;;6.00;5.60;;;;;;;;;;5032301;28;20490;-60
2023/06/18 11:41:11;;;;;;;5.80;5.40;;;;;;;;;;5030917;28;20451;-60
2023/06/18 11:43:47;;;;;;;5.43;5.23;;;;;;;;;;5032577;28;20416;-60
2023/06/18 11:46:25;;;;;;;5.60;5.37;;;;;;;;;;5030861;28;20471;-61
2023/06/18 11:48:54;;;;;;;5.03;4.73;;;;;;;;;;5032407;28;20439;-61
2023/06/18 11:51:20;;;;;;;6.00;5.60;;;;;;;;;;5032379;28;20772;-61
2023/06/18 11:53:46;;;;;;;5.50;5.30;;;;;;;;;;5034657;28;20887;-60
2023/06/18 11:56:12;;;;;;;6.20;5.83;;;;;;;;;;5035898;28;20435;-60
2023/06/18 11:58:38;;;;;;;5.47;5.10;;;;;;;;;;5035687;28;20470;-60
2023/06/18 12:01:05;;;;;;;5.97;5.60;;;;;;;;;;5035260;28;20463;-61
2023/06/18 12:03:35;;;;;;;6.10;5.70;;;;;;;;;;5035755;28;20419;-60
2023/06/18 12:06:11;;;;;;;6.27;5.87;;;;;;;;;;5035773;28;20432;-61
2023/06/18 12:08:42;;;;;;;6.00;5.50;;;;;;;;;;5035571;28;20482;-61
2023/06/18 12:11:15;;;;;;;5.90;5.70;;;;;;;;;;5035542;28;20809;-60
2023/06/18 12:13:43;;;;;;;5.73;5.50;;;;;;;;;;5035522;28;20415;-60
2023/06/18 12:16:12;;;;;;;6.23;5.93;;;;;;;;;;5035523;28;20440;-61
2023/06/18 12:18:41;;;;;;;9.20;5.93;;;;;;;;;;5035488;28;20466;-60
2023/06/18 12:21:09;;;;;;;7.37;6.07;;;;;;;;;;5035566;28;20436;-60
2023/06/18 12:23:41;;;;;;;16.00;14.30;;;;;;;;;;5034290;28;20415;-61
2023/06/18 12:26:07;;;;;;;6.40;5.83;;;;;;;;;;5035288;28;20432;-61
2023/06/18 12:28:34;;;;;;;8.73;5.50;;;;;;;;;;5035716;28;20474;-61
2023/06/18 12:31:10;;;;;;;5.57;5.33;;;;;;;;;;5035261;28;20832;-61
2023/06/18 12:33:44;;;;;;;6.20;5.70;;;;;;;;;;5035399;28;20736;-61
2023/06/18 12:36:10;;;;;;;5.37;5.00;;;;;;;;;;5035200;28;20489;-61
2023/06/18 12:38:43;;;;;;;5.03;4.70;;;;;;;;;;5035266;28;20587;-61
2023/06/18 12:41:09;;;;;;;7.50;5.53;;;;;;;;;;5035421;28;20435;-61
2023/06/18 12:43:39;;;;;;;5.60;5.20;;;;;;;;;;5035195;28;20608;-61
2023/06/18 12:46:05;;;;;;;5.30;5.20;;;;;;;;;;5034906;28;20411;-61
2023/06/18 12:48:37;;;;;;;6.57;5.70;;;;;;;;;;5035133;28;20397;-60
2023/06/18 12:51:03;;;;;;;9.63;5.87;;;;;;;;;;5034861;28;20404;-60
2023/06/18 12:53:29;;;;;;;4.77;4.67;;;;;;;;;;5035022;28;20403;-60
2023/06/18 12:55:59;;;;;;;5.23;4.93;;;;;;;;;;5034952;28;20414;-61
2023/06/18 12:58:29;;;;;;;5.23;5.13;;;;;;;;;;5034653;28;20551;-61
2023/06/18 13:00:57;;;;;;;6.10;5.60;;;;;;;;;;5034676;28;20432;-61
2023/06/18 13:03:26;;;;;;;5.77;5.57;;;;;;;;;;5034206;28;20523;-61
2023/06/18 13:05:52;;;;;;;5.83;5.60;;;;;;;;;;5034740;28;20447;-60
2023/06/18 13:08:19;;;;;;;9.30;6.00;;;;;;;;;;5034650;28;20478;-61
2023/06/18 13:10:45;;;;;;;5.40;5.20;;;;;;;;;;5034748;28;20410;-61
2023/06/18 13:13:12;;;;;;;5.33;5.10;;;;;;;;;;5033388;28;20447;-61
2023/06/18 13:15:40;;;;;;;8.83;8.20;;;;;;;;;;5034412;28;20424;-61
2023/06/18 13:18:07;;;;;;;5.77;5.47;;;;;;;;;;5034423;28;20464;-61
2023/06/18 13:20:34;;;;;;;6.90;6.07;;;;;;;;;;5034336;28;20495;-61
2023/06/18 13:23:00;;;;;;;5.87;5.57;;;;;;;;;;5034182;28;20427;-62
2023/06/18 13:25:26;;;;;;;6.40;5.80;;;;;;;;;;5034417;28;20412;-62
2023/06/18 13:27:52;;;;;;;13.10;6.33;;;;;;;;;;5034189;28;20922;-60
2023/06/18 13:30:18;;;;;;;5.93;5.53;;;;;;;;;;5033967;28;20400;-60
2023/06/18 13:32:45;;;;;;;6.17;5.77;;;;;;;;;;5032864;28;20487;-60
2023/06/18 13:35:11;;;;;;;5.33;5.23;;;;;;;;;;5034109;28;20860;-60
2023/06/18 13:37:40;;;;;;;6.70;6.07;;;;;;;;;;5033845;28;20412;-60
2023/06/18 13:40:07;;;;;;;7.03;6.53;;;;;;;;;;5033932;28;20495;-60
2023/06/18 13:42:33;;;;;;;6.23;5.70;;;;;;;;;;5033844;28;20515;-60
2023/06/18 13:45:01;;;;;;;6.13;5.73;;;;;;;;;;5033719;28;20436;-60
2023/06/18 13:47:27;;;;;;;5.30;5.10;;;;;;;;;;5033600;28;20940;-62
2023/06/18 13:49:57;;;;;;;5.93;5.63;;;;;;;;;;5032194;28;20423;-60
2023/06/18 13:52:23;;;;;;;7.40;5.60;;;;;;;;;;5033390;28;20474;-60
2023/06/18 13:54:51;;;;;;;5.90;5.70;;;;;;;;;;5033558;28;20770;-60
2023/06/18 13:57:18;;;;;;;5.60;5.20;;;;;;;;;;5033347;28;20451;-60
2023/06/18 13:59:45;;;;;;;6.33;5.70;;;;;;;;;;5033599;28;20551;-61
2023/06/18 14:02:12;;;;;;;6.30;5.77;;;;;;;;;;5033410;28;20459;-61
2023/06/18 14:04:39;;;;;;;6.07;5.60;;;;;;;;;;5033581;28;20420;-60
2023/06/18 14:07:07;;;;;;;5.57;5.37;;;;;;;;;;5033555;28;20436;-60
2023/06/18 14:09:34;;;;;;;5.67;5.20;;;;;;;;;;5033217;28;20506;-60
2023/06/18 14:12:00;;;;;;;5.87;5.50;;;;;;;;;;5033308;28;20446;-60
2023/06/18 14:14:26;;;;;;;5.60;5.20;;;;;;;;;;5033017;28;20419;-60
2023/06/18 14:16:52;;;;;;;5.80;5.33;;;;;;;;;;5032375;28;20431;-60
2023/06/18 14:19:19;;;;;;;5.50;5.10;;;;;;;;;;5033029;28;21196;-60
2023/06/18 14:21:45;;;;;;;5.40;5.00;;;;;;;;;;5033110;28;20244;-60
2023/06/18 14:24:11;;;;;;;5.23;4.87;;;;;;;;;;5033021;28;20494;-60
2023/06/18 14:26:37;;;;;;;6.00;5.53;;;;;;;;;;5033052;28;20428;-60
2023/06/18 14:29:05;;;;;;;5.50;5.20;;;;;;;;;;5032857;28;20189;-60
2023/06/18 14:31:31;;;;;;;5.70;5.40;;;;;;;;;;5032784;28;20193;-60
2023/06/18 14:33:57;;;;;;;4.63;4.47;;;;;;;;;;5032979;28;20419;-60